createdAt,value
2022-12-27T00:00:19.297Z,0.00
2022-12-27T00:01:19.462Z,0.00
2022-12-27T00:02:19.753Z,0.00
2022-12-27T00:03:19.878Z,0.00
2022-12-27T00:04:20.012Z,0.00
2022-12-27T00:05:20.173Z,0.00
2022-12-27T00:06:20.351Z,0.00
2022-12-27T00:07:20.506Z,0.00
2022-12-27T00:08:20.664Z,0.00
2022-12-27T00:09:20.873Z,0.00
2022-12-27T00:10:21.027Z,0.00
2022-12-27T00:11:21.214Z,0.00
2022-12-27T00:12:21.376Z,0.00
2022-12-27T00:13:21.576Z,0.00
2022-12-27T00:14:21.729Z,0.00
2022-12-27T00:15:21.926Z,0.00
2022-12-27T00:16:22.119Z,0.00
2022-12-27T00:17:22.253Z,0.00
2022-12-27T00:18:22.404Z,0.00
2022-12-27T00:19:22.592Z,0.00
2022-12-27T00:20:22.786Z,0.00
2022-12-27T00:21:22.958Z,0.00
2022-12-27T00:22:23.106Z,0.00
2022-12-27T00:23:23.303Z,0.00
2022-12-27T00:24:23.454Z,0.00
2022-12-27T00:25:23.647Z,0.00
2022-12-27T00:26:23.827Z,0.00
2022-12-27T00:27:23.982Z,0.00
2022-12-27T00:28:24.137Z,0.00
2022-12-27T00:29:24.332Z,0.00
2022-12-27T00:30:24.478Z,0.00
2022-12-27T00:31:24.789Z,0.00
2022-12-27T00:32:24.831Z,0.00
2022-12-27T00:33:25.021Z,0.00
2022-12-27T00:34:25.194Z,0.00
2022-12-27T00:35:25.393Z,0.00
2022-12-27T00:36:25.580Z,0.00
2022-12-27T00:37:25.721Z,0.00
2022-12-27T00:38:25.873Z,0.00
2022-12-27T00:39:26.064Z,0.00
2022-12-27T00:40:26.214Z,0.00
2022-12-27T00:41:26.431Z,0.00
2022-12-27T00:42:26.591Z,0.00
2022-12-27T00:43:26.794Z,0.00
2022-12-27T00:44:26.982Z,0.00
2022-12-27T00:45:27.186Z,0.00
2022-12-27T00:46:27.335Z,0.00
2022-12-27T00:47:27.496Z,0.00
2022-12-27T00:48:27.644Z,0.00
2022-12-27T00:49:27.842Z,0.00
2022-12-27T00:50:27.999Z,0.00
2022-12-27T00:51:28.204Z,0.00
2022-12-27T00:52:28.366Z,0.00
2022-12-27T00:53:28.564Z,0.00
2022-12-27T00:54:28.717Z,0.00
2022-12-27T00:55:28.910Z,0.00
2022-12-27T00:56:29.089Z,0.00
2022-12-27T00:57:29.244Z,0.00
2022-12-27T00:58:29.393Z,0.00
2022-12-27T00:59:29.582Z,0.00
2022-12-27T01:00:29.754Z,0.00
2022-12-27T01:01:30.157Z,0.00
2022-12-27T01:02:30.133Z,0.00
2022-12-27T01:03:30.337Z,0.00
2022-12-27T01:04:30.452Z,0.00
2022-12-27T01:05:30.642Z,0.00
2022-12-27T01:06:30.812Z,0.00
2022-12-27T01:07:30.973Z,0.00
2022-12-27T01:08:31.151Z,0.00
2022-12-27T01:09:31.350Z,0.00
2022-12-27T01:10:31.524Z,0.00
2022-12-27T01:11:31.698Z,0.00
2022-12-27T01:12:31.853Z,0.00
2022-12-27T01:13:32.020Z,0.00
2022-12-27T01:14:32.189Z,0.00
2022-12-27T01:15:32.377Z,0.00
2022-12-27T01:16:32.572Z,0.00
2022-12-27T01:17:32.692Z,0.00
2022-12-27T01:18:32.847Z,0.00
2022-12-27T01:19:33.011Z,0.00
2022-12-27T01:20:33.171Z,0.00
2022-12-27T01:21:33.399Z,0.00
2022-12-27T01:22:33.565Z,0.00
2022-12-27T01:23:33.732Z,0.00
2022-12-27T01:24:33.897Z,0.00
2022-12-27T01:25:34.061Z,0.00
2022-12-27T01:26:34.242Z,0.00
2022-12-27T01:27:34.399Z,0.00
2022-12-27T01:28:34.574Z,0.00
2022-12-27T01:29:34.735Z,0.00
2022-12-27T01:30:34.904Z,0.00
2022-12-27T01:31:35.145Z,0.00
2022-12-27T01:32:35.265Z,0.00
2022-12-27T01:33:35.428Z,0.00
2022-12-27T01:34:35.581Z,0.00
2022-12-27T01:35:35.778Z,0.00
2022-12-27T01:36:35.954Z,0.00
2022-12-27T01:37:36.116Z,0.00
2022-12-27T01:38:36.300Z,0.00
2022-12-27T01:39:36.439Z,0.00
2022-12-27T01:40:36.599Z,0.00
2022-12-27T01:41:36.817Z,0.00
2022-12-27T01:42:36.959Z,0.00
2022-12-27T01:43:37.151Z,0.00
2022-12-27T01:44:37.313Z,0.00
2022-12-27T01:45:37.491Z,0.00
2022-12-27T01:46:37.656Z,0.00
2022-12-27T01:47:37.817Z,0.00
2022-12-27T01:48:37.968Z,0.00
2022-12-27T01:49:38.138Z,0.00
2022-12-27T01:50:38.325Z,0.00
2022-12-27T01:51:38.528Z,0.00
2022-12-27T01:52:38.683Z,0.00
2022-12-27T01:53:38.848Z,0.00
2022-12-27T01:54:39.050Z,0.00
2022-12-27T01:55:39.197Z,0.00
2022-12-27T01:56:39.367Z,0.00
2022-12-27T01:57:39.537Z,0.00
2022-12-27T01:58:39.739Z,0.00
2022-12-27T01:59:39.918Z,0.00
2022-12-27T02:00:40.068Z,0.00
2022-12-27T02:01:40.416Z,0.00
2022-12-27T02:02:40.505Z,0.00
2022-12-27T02:03:40.567Z,0.00
2022-12-27T02:04:40.765Z,0.00
2022-12-27T02:05:40.919Z,0.00
2022-12-27T02:06:41.126Z,0.00
2022-12-27T02:07:41.299Z,0.00
2022-12-27T02:08:41.484Z,0.00
2022-12-27T02:09:41.655Z,0.00
2022-12-27T02:10:41.845Z,0.00
2022-12-27T02:11:42.019Z,0.00
2022-12-27T02:12:42.183Z,0.00
2022-12-27T02:13:42.335Z,0.00
2022-12-27T02:14:42.514Z,0.00
2022-12-27T02:15:42.673Z,0.00
2022-12-27T02:16:42.869Z,0.00
2022-12-27T02:17:43.011Z,0.00
2022-12-27T02:18:43.212Z,0.00
2022-12-27T02:19:43.367Z,0.00
2022-12-27T02:20:43.544Z,0.00
2022-12-27T02:21:43.724Z,0.00
2022-12-27T02:22:43.886Z,0.00
2022-12-27T02:23:44.036Z,0.00
2022-12-27T02:24:44.237Z,0.00
2022-12-27T02:25:44.386Z,0.00
2022-12-27T02:26:44.613Z,0.00
2022-12-27T02:27:44.748Z,0.00
2022-12-27T02:28:44.914Z,0.00
2022-12-27T02:29:45.160Z,0.00
2022-12-27T02:30:45.306Z,0.00
2022-12-27T02:31:45.433Z,0.00
2022-12-27T02:32:45.603Z,0.00
2022-12-27T02:33:45.773Z,0.00
2022-12-27T02:34:45.983Z,0.00
2022-12-27T02:35:46.141Z,0.00
2022-12-27T02:36:46.349Z,0.00
2022-12-27T02:37:46.499Z,0.00
2022-12-27T02:38:46.678Z,0.00
2022-12-27T02:39:46.857Z,0.00
2022-12-27T02:40:47.006Z,0.00
2022-12-27T02:41:47.202Z,0.00
2022-12-27T02:42:47.342Z,0.00
2022-12-27T02:43:47.502Z,0.00
2022-12-27T02:44:47.672Z,0.00
2022-12-27T02:45:47.845Z,0.00
2022-12-27T02:46:48.007Z,0.00
2022-12-27T02:47:48.152Z,0.00
2022-12-27T02:48:48.310Z,0.00
2022-12-27T02:49:48.512Z,0.00
2022-12-27T02:50:48.677Z,0.00
2022-12-27T02:51:48.841Z,0.00
2022-12-27T02:52:49.003Z,0.00
2022-12-27T02:53:49.183Z,0.00
2022-12-27T02:54:49.384Z,0.00
2022-12-27T02:55:49.532Z,0.00
2022-12-27T02:56:49.760Z,0.00
2022-12-27T02:57:49.879Z,0.00
2022-12-27T02:58:50.144Z,0.00
2022-12-27T02:59:50.249Z,0.00
2022-12-27T03:00:50.439Z,0.00
2022-12-27T03:01:50.704Z,0.00
2022-12-27T03:02:50.803Z,0.00
2022-12-27T03:03:50.959Z,0.00
2022-12-27T03:04:51.109Z,0.00
2022-12-27T03:05:51.300Z,0.00
2022-12-27T03:06:51.527Z,0.00
2022-12-27T03:07:51.668Z,0.00
2022-12-27T03:08:51.867Z,0.00
2022-12-27T03:09:52.025Z,0.00
2022-12-27T03:10:52.218Z,0.00
2022-12-27T03:11:52.437Z,0.00
2022-12-27T03:12:52.548Z,0.00
2022-12-27T03:13:52.729Z,0.00
2022-12-27T03:14:52.927Z,0.00
2022-12-27T03:15:53.104Z,0.00
2022-12-27T03:16:53.282Z,0.00
2022-12-27T03:17:53.437Z,0.00
2022-12-27T03:18:53.630Z,0.00
2022-12-27T03:19:53.789Z,0.00
2022-12-27T03:20:53.982Z,0.00
2022-12-27T03:21:54.157Z,0.00
2022-12-27T03:22:54.318Z,0.00
2022-12-27T03:23:54.496Z,0.00
2022-12-27T03:24:54.671Z,0.00
2022-12-27T03:25:54.818Z,0.00
2022-12-27T03:26:55.007Z,0.00
2022-12-27T03:27:55.156Z,0.00
2022-12-27T03:28:55.357Z,0.00
2022-12-27T03:29:55.540Z,0.00
2022-12-27T03:30:55.715Z,0.00
2022-12-27T03:31:55.885Z,0.00
2022-12-27T03:32:56.051Z,0.00
2022-12-27T03:33:56.205Z,0.00
2022-12-27T03:34:56.378Z,0.00
2022-12-27T03:35:56.526Z,0.00
2022-12-27T03:36:56.707Z,0.00
2022-12-27T03:37:56.872Z,0.00
2022-12-27T03:38:57.056Z,0.00
2022-12-27T03:39:57.205Z,0.00
2022-12-27T03:40:57.420Z,0.00
2022-12-27T03:41:57.635Z,0.00
2022-12-27T03:42:57.753Z,0.00
2022-12-27T03:43:57.904Z,0.00
2022-12-27T03:44:58.112Z,0.00
2022-12-27T03:45:58.322Z,0.00
2022-12-27T03:46:58.431Z,0.00
2022-12-27T03:47:58.586Z,0.00
2022-12-27T03:48:58.781Z,0.00
2022-12-27T03:49:58.929Z,0.00
2022-12-27T03:50:59.116Z,0.00
2022-12-27T03:51:59.263Z,0.00
2022-12-27T03:52:59.424Z,0.00
2022-12-27T03:53:59.598Z,0.00
2022-12-27T03:54:59.796Z,0.00
2022-12-27T03:55:59.942Z,0.00
2022-12-27T03:57:00.143Z,0.00
2022-12-27T03:58:00.309Z,0.00
2022-12-27T03:59:00.481Z,0.00
2022-12-27T04:00:00.658Z,0.00
2022-12-27T04:01:00.810Z,0.00
2022-12-27T04:02:01.134Z,0.00
2022-12-27T04:03:01.251Z,0.00
2022-12-27T04:04:01.292Z,0.00
2022-12-27T04:05:01.483Z,0.00
2022-12-27T04:06:01.643Z,0.00
2022-12-27T04:07:01.840Z,0.00
2022-12-27T04:08:02.009Z,0.00
2022-12-27T04:09:02.193Z,0.00
2022-12-27T04:10:02.399Z,0.00
2022-12-27T04:11:02.530Z,0.00
2022-12-27T04:12:02.764Z,0.00
2022-12-27T04:13:02.883Z,0.00
2022-12-27T04:14:03.037Z,0.00
2022-12-27T04:15:03.214Z,0.00
2022-12-27T04:16:03.411Z,0.00
2022-12-27T04:17:03.561Z,0.00
2022-12-27T04:18:03.721Z,0.00
2022-12-27T04:19:03.932Z,0.00
2022-12-27T04:20:04.081Z,0.00
2022-12-27T04:21:04.285Z,0.00
2022-12-27T04:22:04.420Z,0.00
2022-12-27T04:23:04.596Z,0.00
2022-12-27T04:24:04.770Z,0.00
2022-12-27T04:25:04.929Z,0.00
2022-12-27T04:26:05.082Z,0.00
2022-12-27T04:27:05.253Z,0.00
2022-12-27T04:28:05.407Z,0.00
2022-12-27T04:29:05.629Z,0.00
2022-12-27T04:30:05.800Z,0.00
2022-12-27T04:31:06.011Z,0.00
2022-12-27T04:32:06.154Z,0.00
2022-12-27T04:33:06.310Z,0.00
2022-12-27T04:34:06.482Z,0.00
2022-12-27T04:35:06.666Z,0.00
2022-12-27T04:36:06.840Z,0.00
2022-12-27T04:37:07.031Z,0.00
2022-12-27T04:38:07.178Z,0.00
2022-12-27T04:39:07.369Z,0.00
2022-12-27T04:40:07.583Z,0.00
2022-12-27T04:41:07.730Z,0.00
2022-12-27T04:42:07.935Z,0.00
2022-12-27T04:43:08.055Z,0.00
2022-12-27T04:44:08.229Z,0.00
2022-12-27T04:45:14.903Z,0.00
2022-12-27T04:46:09.633Z,0.00
2022-12-27T04:47:08.786Z,0.00
2022-12-27T04:48:08.937Z,0.00
2022-12-27T04:49:09.144Z,0.00
2022-12-27T04:50:09.289Z,0.00
2022-12-27T04:51:09.480Z,0.00
2022-12-27T04:52:09.651Z,0.00
2022-12-27T04:53:09.815Z,0.00
2022-12-27T04:54:09.975Z,0.00
2022-12-27T04:55:10.290Z,0.00
2022-12-27T04:56:10.315Z,0.00
2022-12-27T04:57:10.536Z,0.00
2022-12-27T04:58:10.655Z,0.00
2022-12-27T04:59:10.853Z,0.00
2022-12-27T05:00:11.016Z,0.00
2022-12-27T05:01:14.316Z,0.00
2022-12-27T05:02:11.422Z,0.00
2022-12-27T05:03:11.590Z,0.00
2022-12-27T05:04:11.685Z,0.00
2022-12-27T05:05:11.876Z,0.00
2022-12-27T05:06:12.035Z,0.00
2022-12-27T05:07:12.241Z,0.00
2022-12-27T05:08:12.394Z,0.00
2022-12-27T05:09:12.593Z,0.00
2022-12-27T05:10:12.745Z,0.00
2022-12-27T05:11:12.941Z,0.00
2022-12-27T05:12:13.113Z,0.00
2022-12-27T05:13:13.273Z,0.00
2022-12-27T05:14:13.422Z,0.00
2022-12-27T05:15:13.623Z,0.00
2022-12-27T05:16:13.815Z,0.00
2022-12-27T05:17:13.954Z,0.00
2022-12-27T05:18:14.134Z,0.00
2022-12-27T05:19:14.301Z,0.00
2022-12-27T05:20:14.457Z,0.00
2022-12-27T05:21:14.649Z,0.00
2022-12-27T05:22:14.820Z,0.00
2022-12-27T05:23:14.986Z,0.00
2022-12-27T05:24:15.131Z,0.00
2022-12-27T05:25:15.294Z,0.00
2022-12-27T05:26:15.478Z,0.00
2022-12-27T05:27:16.167Z,0.00
2022-12-27T05:28:15.862Z,0.00
2022-12-27T05:29:16.032Z,0.00
2022-12-27T05:30:16.180Z,0.00
2022-12-27T05:31:16.394Z,0.00
2022-12-27T05:32:16.552Z,0.00
2022-12-27T05:33:16.711Z,0.00
2022-12-27T05:34:16.885Z,0.00
2022-12-27T05:35:17.042Z,0.00
2022-12-27T05:36:17.221Z,0.00
2022-12-27T05:37:17.411Z,0.00
2022-12-27T05:38:17.599Z,0.00
2022-12-27T05:39:17.810Z,0.00
2022-12-27T05:40:17.951Z,0.00
2022-12-27T05:41:18.139Z,0.00
2022-12-27T05:42:18.313Z,0.00
2022-12-27T05:43:18.477Z,0.00
2022-12-27T05:44:18.652Z,0.00
2022-12-27T05:45:18.815Z,0.00
2022-12-27T05:46:18.996Z,0.00
2022-12-27T05:47:19.148Z,0.00
2022-12-27T05:48:19.329Z,0.00
2022-12-27T05:49:19.540Z,0.00
2022-12-27T05:50:19.695Z,0.00
2022-12-27T05:51:19.897Z,0.00
2022-12-27T05:52:20.070Z,0.00
2022-12-27T05:53:20.214Z,0.00
2022-12-27T05:54:20.379Z,0.00
2022-12-27T05:55:20.559Z,0.00
2022-12-27T05:56:20.733Z,0.00
2022-12-27T05:57:20.936Z,0.00
2022-12-27T05:58:21.088Z,0.00
2022-12-27T05:59:21.258Z,0.00
2022-12-27T06:00:21.414Z,0.00
2022-12-27T06:01:21.639Z,0.00
2022-12-27T06:02:22.017Z,0.00
2022-12-27T06:03:22.116Z,0.00
2022-12-27T06:04:22.165Z,0.00
2022-12-27T06:05:22.347Z,0.00
2022-12-27T06:06:22.511Z,0.00
2022-12-27T06:07:22.708Z,0.00
2022-12-27T06:08:22.875Z,0.00
2022-12-27T06:09:23.042Z,0.00
2022-12-27T06:10:23.241Z,0.00
2022-12-27T06:11:23.389Z,0.00
2022-12-27T06:12:23.587Z,0.00
2022-12-27T06:13:23.748Z,0.00
2022-12-27T06:14:23.937Z,0.00
2022-12-27T06:15:24.091Z,0.00
2022-12-27T06:16:24.323Z,0.00
2022-12-27T06:17:24.483Z,0.00
2022-12-27T06:18:24.644Z,0.00
2022-12-27T06:19:24.795Z,0.00
2022-12-27T06:20:24.992Z,0.00
2022-12-27T06:21:25.152Z,0.00
2022-12-27T06:22:25.333Z,0.00
2022-12-27T06:23:25.476Z,0.00
2022-12-27T06:24:25.655Z,0.00
2022-12-27T06:25:25.814Z,0.00
2022-12-27T06:26:26.028Z,0.00
2022-12-27T06:27:26.163Z,0.00
2022-12-27T06:28:26.332Z,0.00
2022-12-27T06:29:26.492Z,0.00
2022-12-27T06:30:29.291Z,0.00
2022-12-27T06:31:27.916Z,0.00
2022-12-27T06:32:27.042Z,0.00
2022-12-27T06:33:27.198Z,0.00
2022-12-27T06:34:27.385Z,0.00
2022-12-27T06:35:27.554Z,0.00
2022-12-27T06:36:27.734Z,0.00
2022-12-27T06:37:27.885Z,0.00
2022-12-27T06:38:28.057Z,0.00
2022-12-27T06:39:28.194Z,0.00
2022-12-27T06:40:28.395Z,0.00
2022-12-27T06:41:28.543Z,0.00
2022-12-27T06:42:28.753Z,0.00
2022-12-27T06:43:28.904Z,0.00
2022-12-27T06:44:29.104Z,0.00
2022-12-27T06:45:29.303Z,0.00
2022-12-27T06:46:29.625Z,0.00
2022-12-27T06:47:29.634Z,0.00
2022-12-27T06:48:29.793Z,0.00
2022-12-27T06:49:29.956Z,0.00
2022-12-27T06:50:30.111Z,0.00
2022-12-27T06:51:30.281Z,0.00
2022-12-27T06:52:30.477Z,0.00
2022-12-27T06:53:30.645Z,0.00
2022-12-27T06:54:30.822Z,0.00
2022-12-27T06:55:30.998Z,0.00
2022-12-27T06:56:31.171Z,0.00
2022-12-27T06:57:31.364Z,0.00
2022-12-27T06:58:31.533Z,0.00
2022-12-27T06:59:31.703Z,0.00
2022-12-27T07:00:31.881Z,0.00
2022-12-27T07:01:32.145Z,0.00
2022-12-27T07:02:32.372Z,0.00
2022-12-27T07:03:32.402Z,0.00
2022-12-27T07:04:32.590Z,0.00
2022-12-27T07:05:32.752Z,5.62
2022-12-27T07:06:32.937Z,5.62
2022-12-27T07:07:33.123Z,5.62
2022-12-27T07:08:33.307Z,5.62
2022-12-27T07:09:33.480Z,5.62
2022-12-27T07:10:33.670Z,5.62
2022-12-27T07:11:33.835Z,5.62
2022-12-27T07:12:36.828Z,5.62
2022-12-27T07:13:34.178Z,5.62
2022-12-27T07:14:34.341Z,11.25
2022-12-27T07:15:34.541Z,11.25
2022-12-27T07:16:35.247Z,11.25
2022-12-27T07:17:34.914Z,11.25
2022-12-27T07:18:35.070Z,11.25
2022-12-27T07:19:35.245Z,11.25
2022-12-27T07:20:35.422Z,16.88
2022-12-27T07:21:35.607Z,16.88
2022-12-27T07:22:35.797Z,16.88
2022-12-27T07:23:35.970Z,16.88
2022-12-27T07:24:36.160Z,22.50
2022-12-27T07:25:36.339Z,22.50
2022-12-27T07:26:36.530Z,22.50
2022-12-27T07:27:36.760Z,28.12
2022-12-27T07:28:36.909Z,28.12
2022-12-27T07:29:41.918Z,28.12
2022-12-27T07:30:38.255Z,28.12
2022-12-27T07:31:37.419Z,33.75
2022-12-27T07:32:37.608Z,33.75
2022-12-27T07:33:37.770Z,45.00
2022-12-27T07:34:37.934Z,50.62
2022-12-27T07:35:43.472Z,50.62
2022-12-27T07:36:39.297Z,56.25
2022-12-27T07:37:38.455Z,50.62
2022-12-27T07:38:38.637Z,50.62
2022-12-27T07:39:38.815Z,56.25
2022-12-27T07:40:38.999Z,56.25
2022-12-27T07:41:39.159Z,45.00
2022-12-27T07:42:39.357Z,45.00
2022-12-27T07:43:39.496Z,45.00
2022-12-27T07:44:39.704Z,39.38
2022-12-27T07:45:39.891Z,39.38
2022-12-27T07:46:40.063Z,33.75
2022-12-27T07:47:40.215Z,28.12
2022-12-27T07:48:40.424Z,33.75
2022-12-27T07:49:40.590Z,28.12
2022-12-27T07:50:40.744Z,33.75
2022-12-27T07:51:40.930Z,33.75
2022-12-27T07:52:41.158Z,33.75
2022-12-27T07:53:41.283Z,39.38
2022-12-27T07:54:41.476Z,45.00
2022-12-27T07:55:41.642Z,50.62
2022-12-27T07:56:41.818Z,56.25
2022-12-27T07:57:42.005Z,61.88
2022-12-27T07:58:42.166Z,67.50
2022-12-27T07:59:42.350Z,61.88
2022-12-27T08:00:42.541Z,56.25
2022-12-27T08:01:42.757Z,50.62
2022-12-27T08:02:42.885Z,50.62
2022-12-27T08:03:43.142Z,56.25
2022-12-27T08:04:43.242Z,56.25
2022-12-27T08:05:43.440Z,67.50
2022-12-27T08:06:43.596Z,67.50
2022-12-27T08:07:43.792Z,67.50
2022-12-27T08:08:43.963Z,67.50
2022-12-27T08:09:44.145Z,61.88
2022-12-27T08:10:44.333Z,61.88
2022-12-27T08:11:44.516Z,56.25
2022-12-27T08:12:44.725Z,61.88
2022-12-27T08:13:44.879Z,61.88
2022-12-27T08:14:45.066Z,61.88
2022-12-27T08:15:45.256Z,61.88
2022-12-27T08:16:45.469Z,67.50
2022-12-27T08:17:45.642Z,84.38
2022-12-27T08:18:45.811Z,90.00
2022-12-27T08:19:45.971Z,112.50
2022-12-27T08:20:46.157Z,118.12
2022-12-27T08:21:46.324Z,118.12
2022-12-27T08:22:46.524Z,118.12
2022-12-27T08:23:46.704Z,112.50
2022-12-27T08:24:46.870Z,112.50
2022-12-27T08:25:48.981Z,106.88
2022-12-27T08:26:47.212Z,112.50
2022-12-27T08:27:47.402Z,112.50
2022-12-27T08:28:47.582Z,112.50
2022-12-27T08:29:47.766Z,129.38
2022-12-27T08:30:47.982Z,146.25
2022-12-27T08:31:48.118Z,118.12
2022-12-27T08:32:48.304Z,106.88
2022-12-27T08:33:51.230Z,106.88
2022-12-27T08:34:49.670Z,95.62
2022-12-27T08:35:53.763Z,95.62
2022-12-27T08:36:57.390Z,101.25
2022-12-27T08:37:50.208Z,118.12
2022-12-27T08:38:49.362Z,123.75
2022-12-27T08:39:49.539Z,129.38
2022-12-27T08:40:49.720Z,140.62
2022-12-27T08:41:49.926Z,135.00
2022-12-27T08:42:50.091Z,129.38
2022-12-27T08:43:50.245Z,146.25
2022-12-27T08:44:50.423Z,129.38
2022-12-27T08:45:50.616Z,123.75
2022-12-27T08:46:50.740Z,123.75
2022-12-27T08:47:50.953Z,112.50
2022-12-27T08:48:51.100Z,78.75
2022-12-27T08:49:51.250Z,67.50
2022-12-27T08:50:51.462Z,78.75
2022-12-27T08:51:51.618Z,73.12
2022-12-27T08:52:51.808Z,129.38
2022-12-27T08:53:51.985Z,140.62
2022-12-27T08:54:52.132Z,140.62
2022-12-27T08:55:52.309Z,135.00
2022-12-27T08:56:52.496Z,157.50
2022-12-27T08:57:52.671Z,180.00
2022-12-27T08:58:52.857Z,191.25
2022-12-27T08:59:53.031Z,196.88
2022-12-27T09:00:53.209Z,146.25
2022-12-27T09:01:53.581Z,123.75
2022-12-27T09:02:53.611Z,123.75
2022-12-27T09:03:53.763Z,146.25
2022-12-27T09:04:53.919Z,151.88
2022-12-27T09:05:54.091Z,163.12
2022-12-27T09:06:54.283Z,168.75
2022-12-27T09:07:54.470Z,191.25
2022-12-27T09:08:54.796Z,180.00
2022-12-27T09:09:54.827Z,180.00
2022-12-27T09:10:55.010Z,196.88
2022-12-27T09:11:56.062Z,270.00
2022-12-27T09:12:55.371Z,331.88
2022-12-27T09:13:55.545Z,703.12
2022-12-27T09:14:55.706Z,663.75
2022-12-27T09:15:55.886Z,630.00
2022-12-27T09:16:56.040Z,630.00
2022-12-27T09:17:56.204Z,720.00
2022-12-27T09:18:56.394Z,776.25
2022-12-27T09:19:56.558Z,793.12
2022-12-27T09:20:56.703Z,821.25
2022-12-27T09:21:56.856Z,748.12
2022-12-27T09:22:57.060Z,264.38
2022-12-27T09:23:57.240Z,241.88
2022-12-27T09:24:57.446Z,241.88
2022-12-27T09:25:57.567Z,219.38
2022-12-27T09:26:57.760Z,213.75
2022-12-27T09:27:57.979Z,208.12
2022-12-27T09:28:58.117Z,185.62
2022-12-27T09:29:58.308Z,151.88
2022-12-27T09:30:58.527Z,140.62
2022-12-27T09:31:58.639Z,129.38
2022-12-27T09:32:58.851Z,129.38
2022-12-27T09:33:59.021Z,135.00
2022-12-27T09:34:59.175Z,157.50
2022-12-27T09:35:59.329Z,163.12
2022-12-27T09:36:59.526Z,163.12
2022-12-27T09:37:59.718Z,196.88
2022-12-27T09:38:59.907Z,241.88
2022-12-27T09:40:00.059Z,253.12
2022-12-27T09:41:00.205Z,196.88
2022-12-27T09:43:16.352Z,213.75
2022-12-27T09:44:01.718Z,208.12
2022-12-27T09:45:00.927Z,191.25
2022-12-27T09:46:01.136Z,202.50
2022-12-27T09:47:01.255Z,196.88
2022-12-27T09:48:01.414Z,241.88
2022-12-27T09:49:01.574Z,264.38
2022-12-27T09:50:01.739Z,258.75
2022-12-27T09:51:01.884Z,309.38
2022-12-27T09:52:02.067Z,258.75
2022-12-27T09:53:02.265Z,236.25
2022-12-27T09:54:02.454Z,225.00
2022-12-27T09:55:05.007Z,225.00
2022-12-27T09:56:02.787Z,225.00
2022-12-27T09:57:19.442Z,225.00
2022-12-27T09:58:04.093Z,241.88
2022-12-27T09:59:03.387Z,275.62
2022-12-27T10:00:03.452Z,343.12
2022-12-27T10:01:03.647Z,360.00
2022-12-27T10:02:03.886Z,343.12
2022-12-27T10:03:04.005Z,348.75
2022-12-27T10:04:04.207Z,348.75
2022-12-27T10:05:21.580Z,343.12
2022-12-27T10:06:05.584Z,320.62
2022-12-27T10:07:04.697Z,286.88
2022-12-27T10:08:04.876Z,247.50
2022-12-27T10:09:05.116Z,247.50
2022-12-27T10:10:05.246Z,303.75
2022-12-27T10:11:05.434Z,410.62
2022-12-27T10:12:05.628Z,399.38
2022-12-27T10:13:05.797Z,343.12
2022-12-27T10:14:06.025Z,348.75
2022-12-27T10:15:06.146Z,371.25
2022-12-27T10:16:06.352Z,343.12
2022-12-27T10:17:06.516Z,320.62
2022-12-27T10:18:06.692Z,303.75
2022-12-27T10:19:06.933Z,303.75
2022-12-27T10:20:07.105Z,292.50
2022-12-27T10:21:07.248Z,303.75
2022-12-27T10:22:07.437Z,292.50
2022-12-27T10:23:07.556Z,270.00
2022-12-27T10:24:07.771Z,264.38
2022-12-27T10:25:07.897Z,270.00
2022-12-27T10:26:08.082Z,286.88
2022-12-27T10:27:08.248Z,264.38
2022-12-27T10:28:08.455Z,247.50
2022-12-27T10:29:08.614Z,270.00
2022-12-27T10:30:08.787Z,286.88
2022-12-27T10:31:08.990Z,264.38
2022-12-27T10:32:09.154Z,298.12
2022-12-27T10:33:09.335Z,275.62
2022-12-27T10:34:10.843Z,309.38
2022-12-27T10:35:09.684Z,298.12
2022-12-27T10:36:09.866Z,286.88
2022-12-27T10:37:10.056Z,258.75
2022-12-27T10:38:10.235Z,281.25
2022-12-27T10:39:10.446Z,247.50
2022-12-27T10:40:10.603Z,253.12
2022-12-27T10:41:10.797Z,253.12
2022-12-27T10:42:10.970Z,320.62
2022-12-27T10:43:11.111Z,298.12
2022-12-27T10:44:11.330Z,298.12
2022-12-27T10:45:11.515Z,298.12
2022-12-27T10:46:11.697Z,264.38
2022-12-27T10:47:11.911Z,241.88
2022-12-27T10:48:12.033Z,258.75
2022-12-27T10:49:21.109Z,258.75
2022-12-27T10:50:13.374Z,270.00
2022-12-27T10:51:12.543Z,236.25
2022-12-27T10:52:12.701Z,219.38
2022-12-27T10:53:12.885Z,196.88
2022-12-27T10:54:13.073Z,191.25
2022-12-27T10:55:13.256Z,196.88
2022-12-27T10:56:13.441Z,196.88
2022-12-27T10:57:13.625Z,191.25
2022-12-27T10:58:13.810Z,196.88
2022-12-27T10:59:14.004Z,168.75
2022-12-27T11:00:14.185Z,191.25
2022-12-27T11:01:14.548Z,185.62
2022-12-27T11:02:14.697Z,196.88
2022-12-27T11:03:14.709Z,208.12
2022-12-27T11:04:20.291Z,208.12
2022-12-27T11:05:16.063Z,208.12
2022-12-27T11:06:15.255Z,174.38
2022-12-27T11:07:15.438Z,157.50
2022-12-27T11:08:15.632Z,118.12
2022-12-27T11:09:15.793Z,129.38
2022-12-27T11:10:15.956Z,112.50
2022-12-27T11:11:16.133Z,151.88
2022-12-27T11:12:16.314Z,180.00
2022-12-27T11:13:16.492Z,129.38
2022-12-27T11:14:16.692Z,129.38
2022-12-27T11:15:16.885Z,135.00
2022-12-27T11:16:17.073Z,196.88
2022-12-27T11:17:17.240Z,168.75
2022-12-27T11:18:17.434Z,185.62
2022-12-27T11:19:17.620Z,225.00
2022-12-27T11:20:17.792Z,219.38
2022-12-27T11:21:25.772Z,202.50
2022-12-27T11:22:19.163Z,208.12
2022-12-27T11:23:18.374Z,213.75
2022-12-27T11:24:18.563Z,174.38
2022-12-27T11:25:18.732Z,202.50
2022-12-27T11:26:18.912Z,225.00
2022-12-27T11:27:19.103Z,281.25
2022-12-27T11:28:19.283Z,258.75
2022-12-27T11:29:19.491Z,264.38
2022-12-27T11:30:19.651Z,241.88
2022-12-27T11:31:19.866Z,213.75
2022-12-27T11:32:20.002Z,213.75
2022-12-27T11:33:24.690Z,196.88
2022-12-27T11:34:21.395Z,174.38
2022-12-27T11:35:20.506Z,168.75
2022-12-27T11:36:20.691Z,180.00
2022-12-27T11:37:20.870Z,191.25
2022-12-27T11:38:21.061Z,185.62
2022-12-27T11:39:21.254Z,191.25
2022-12-27T11:40:21.420Z,191.25
2022-12-27T11:41:27.586Z,191.25
2022-12-27T11:42:22.786Z,191.25
2022-12-27T11:43:21.969Z,191.25
2022-12-27T11:44:22.177Z,191.25
2022-12-27T11:45:22.334Z,191.25
2022-12-27T11:46:22.533Z,191.25
2022-12-27T11:47:22.738Z,191.25
2022-12-27T11:48:22.918Z,185.62
2022-12-27T11:49:23.074Z,191.25
2022-12-27T11:50:23.259Z,191.25
2022-12-27T11:51:23.432Z,180.00
2022-12-27T11:52:23.628Z,191.25
2022-12-27T11:53:23.773Z,196.88
2022-12-27T11:54:23.984Z,191.25
2022-12-27T11:55:24.141Z,208.12
2022-12-27T11:56:24.352Z,264.38
2022-12-27T11:57:24.523Z,270.00
2022-12-27T11:58:24.706Z,320.62
2022-12-27T11:59:24.899Z,286.88
2022-12-27T12:00:25.069Z,309.38
2022-12-27T12:01:25.242Z,315.00
2022-12-27T12:02:25.452Z,292.50
2022-12-27T12:03:25.579Z,281.25
2022-12-27T12:04:25.783Z,264.38
2022-12-27T12:05:25.919Z,258.75
2022-12-27T12:06:28.813Z,281.25
2022-12-27T12:07:27.290Z,258.75
2022-12-27T12:08:26.439Z,286.88
2022-12-27T12:09:26.662Z,286.88
2022-12-27T12:10:26.806Z,236.25
2022-12-27T12:11:26.991Z,230.62
2022-12-27T12:12:27.172Z,292.50
2022-12-27T12:13:27.340Z,275.62
2022-12-27T12:14:27.544Z,253.12
2022-12-27T12:15:27.739Z,236.25
2022-12-27T12:16:27.951Z,225.00
2022-12-27T12:17:34.007Z,270.00
2022-12-27T12:18:29.238Z,298.12
2022-12-27T12:19:28.401Z,315.00
2022-12-27T12:20:28.570Z,303.75
2022-12-27T12:21:28.742Z,264.38
2022-12-27T12:22:28.920Z,236.25
2022-12-27T12:23:29.163Z,230.62
2022-12-27T12:24:29.301Z,230.62
2022-12-27T12:25:29.435Z,241.88
2022-12-27T12:26:29.619Z,219.38
2022-12-27T12:27:29.804Z,191.25
2022-12-27T12:28:57.116Z,185.62
2022-12-27T12:29:31.149Z,168.75
2022-12-27T12:30:30.299Z,185.62
2022-12-27T12:31:30.492Z,157.50
2022-12-27T12:32:30.656Z,168.75
2022-12-27T12:33:30.838Z,157.50
2022-12-27T12:34:31.048Z,140.62
2022-12-27T12:35:31.200Z,129.38
2022-12-27T12:36:31.379Z,129.38
2022-12-27T12:37:31.556Z,163.12
2022-12-27T12:38:31.754Z,168.75
2022-12-27T12:39:31.957Z,168.75
2022-12-27T12:40:32.110Z,163.12
2022-12-27T12:41:32.293Z,174.38
2022-12-27T12:42:32.520Z,185.62
2022-12-27T12:43:32.628Z,180.00
2022-12-27T12:44:37.907Z,185.62
2022-12-27T12:45:34.009Z,174.38
2022-12-27T12:46:33.182Z,168.75
2022-12-27T12:47:33.358Z,180.00
2022-12-27T12:48:33.548Z,163.12
2022-12-27T12:49:33.722Z,157.50
2022-12-27T12:50:33.909Z,146.25
2022-12-27T12:51:34.088Z,146.25
2022-12-27T12:52:34.269Z,146.25
2022-12-27T12:53:34.430Z,146.25
2022-12-27T12:54:34.618Z,146.25
2022-12-27T12:55:38.477Z,146.25
2022-12-27T12:56:34.961Z,151.88
2022-12-27T12:57:35.129Z,146.25
2022-12-27T12:58:35.312Z,146.25
2022-12-27T12:59:35.496Z,157.50
2022-12-27T13:00:35.738Z,146.25